Portada
METAR-TAF:

METAR-TAF

Aeroports :

Pirassununga, São Paulo, Brasil

latitud: 21-59S, longitud: 047-20W, altitud: 597 m

Observació

L'informe es va fer fa 3 hores i 23 minuts, a les 02:00 UTC
Vent 1 kt del Est/Nord-Est
Temperatura 17°C
Humitat 68%
Pressió 1024 hPa
Visibilitat 10 km o més
sense núvols per sota de 1500 mi sense presència de cumulonimbus.

METAR: SBYS 090200Z 07001KT CAVOK 17/11 Q1024

Hora: 02:23 (05:23 UTC)

Pronòstic

L'informe es va fer fa 8 hores i 23 minuts, a les 21:00 UTC
Pronòstic vàlid del 09 a les 00 UTC al 09 a les 12 UTC
Vent 5 kt del Sud-Oest
Visibilitat 10 km o més
sense núvols per sota de 1500 mi sense presència de cumulonimbus.

TAF: SBYS 082100Z 0900/0912 22005KT CAVOK TN05/0906Z TX16/0912Z RMK PEG

Observacions i pronòstics meteorològics de més de 4000 aeroports (METAR i TAF).

Les estacions disponibles són els punts grocs i vermells al mapa.

Posi el ratolí al punt desitjat per veure el nom de l'estació.

Feu clic per veure les observacions i els pronòstics meteorològics.

Per canviar el mapa: feu clic els botons verds amb una creu de color negre per apropar; al botó verd amb un guió per allunyar la imatge; o en les fletxes verdes per a mapes adjacents.


METAR-TAF: